sensor_id;sensor_type;location;lat;lon;timestamp;pressure;altitude;pressure_sealevel;temperature
69186;BMP280;56298;49.246;9.410;2022-10-26T00:00:00;99472.78;;;12.19
69186;BMP280;56298;49.246;9.410;2022-10-26T00:02:25;99469.03;;;12.28
69186;BMP280;56298;49.246;9.410;2022-10-26T00:04:50;99469.03;;;12.28
69186;BMP280;56298;49.246;9.410;2022-10-26T00:07:16;99461.94;;;12.26
69186;BMP280;56298;49.246;9.410;2022-10-26T00:09:41;99456.81;;;12.25
69186;BMP280;56298;49.246;9.410;2022-10-26T00:12:06;99442.28;;;12.24
69186;BMP280;56298;49.246;9.410;2022-10-26T00:14:32;99437.19;;;12.26
69186;BMP280;56298;49.246;9.410;2022-10-26T00:16:57;99437.72;;;12.12
69186;BMP280;56298;49.246;9.410;2022-10-26T00:19:22;99438.81;;;12.08
69186;BMP280;56298;49.246;9.410;2022-10-26T00:21:48;99431.84;;;12.14
69186;BMP280;56298;49.246;9.410;2022-10-26T00:24:13;99418.06;;;12.10
69186;BMP280;56298;49.246;9.410;2022-10-26T00:26:39;99418.78;;;12.07
69186;BMP280;56298;49.246;9.410;2022-10-26T00:29:05;99441.63;;;11.92
69186;BMP280;56298;49.246;9.410;2022-10-26T00:31:30;99471.41;;;11.90
69186;BMP280;56298;49.246;9.410;2022-10-26T00:33:56;99478.72;;;12.02
69186;BMP280;56298;49.246;9.410;2022-10-26T00:36:23;99483.22;;;12.10
69186;BMP280;56298;49.246;9.410;2022-10-26T00:38:49;99474.69;;;12.15
69186;BMP280;56298;49.246;9.410;2022-10-26T00:41:17;99477.13;;;12.20
69186;BMP280;56298;49.246;9.410;2022-10-26T00:43:43;99475.69;;;12.26
69186;BMP280;56298;49.246;9.410;2022-10-26T00:46:30;99464.78;;;12.30
69186;BMP280;56298;49.246;9.410;2022-10-26T00:49:00;99462.88;;;12.34
69186;BMP280;56298;49.246;9.410;2022-10-26T00:51:45;99463.38;;;12.40
69186;BMP280;56298;49.246;9.410;2022-10-26T00:54:15;99472.06;;;12.42
69186;BMP280;56298;49.246;9.410;2022-10-26T00:56:46;99468.94;;;12.44
69186;BMP280;56298;49.246;9.410;2022-10-26T00:59:15;99450.41;;;12.40
69186;BMP280;56298;49.246;9.410;2022-10-26T01:01:43;99457.59;;;12.45
69186;BMP280;56298;49.246;9.410;2022-10-26T01:04:11;99459.53;;;12.45
69186;BMP280;56298;49.246;9.410;2022-10-26T01:06:37;99456.78;;;12.45
69186;BMP280;56298;49.246;9.410;2022-10-26T01:09:03;99462.28;;;12.45
69186;BMP280;56298;49.246;9.410;2022-10-26T01:11:29;99468.94;;;12.44
69186;BMP280;56298;49.246;9.410;2022-10-26T01:13:55;99465.34;;;12.39
69186;BMP280;56298;49.246;9.410;2022-10-26T01:21:24;99464.16;;;12.40
69186;BMP280;56298;49.246;9.410;2022-10-26T01:24:18;99460.69;;;12.44
69186;BMP280;56298;49.246;9.410;2022-10-26T01:26:52;99461.13;;;12.46
69186;BMP280;56298;49.246;9.410;2022-10-26T01:29:50;99461.13;;;12.46
69186;BMP280;56298;49.246;9.410;2022-10-26T01:32:24;99464.03;;;12.53
69186;BMP280;56298;49.246;9.410;2022-10-26T01:37:32;99468.78;;;12.56
69186;BMP280;56298;49.246;9.410;2022-10-26T01:40:25;99466.09;;;12.60
69186;BMP280;56298;49.246;9.410;2022-10-26T01:42:52;99458.19;;;12.58
69186;BMP280;56298;49.246;9.410;2022-10-26T01:45:18;99458.25;;;12.62
69186;BMP280;56298;49.246;9.410;2022-10-26T01:47:44;99462.59;;;12.63
69186;BMP280;56298;49.246;9.410;2022-10-26T01:50:11;99457.88;;;12.63
69186;BMP280;56298;49.246;9.410;2022-10-26T01:52:37;99453.94;;;12.61
69186;BMP280;56298;49.246;9.410;2022-10-26T01:55:31;99445.25;;;12.59
69186;BMP280;56298;49.246;9.410;2022-10-26T01:57:51;99440.19;;;12.61
69186;BMP280;56298;49.246;9.410;2022-10-26T02:00:17;99442.53;;;12.62
69186;BMP280;56298;49.246;9.410;2022-10-26T02:02:59;99427.28;;;12.65
69186;BMP280;56298;49.246;9.410;2022-10-26T02:11:23;99410.59;;;12.54
69186;BMP280;56298;49.246;9.410;2022-10-26T02:16:24;99409.69;;;12.46
69186;BMP280;56298;49.246;9.410;2022-10-26T02:19:07;99403.78;;;12.48
69186;BMP280;56298;49.246;9.410;2022-10-26T02:21:42;99402.88;;;12.40
69186;BMP280;56298;49.246;9.410;2022-10-26T02:24:11;99400.44;;;12.35
69186;BMP280;56298;49.246;9.410;2022-10-26T02:26:38;99392.75;;;12.44
69186;BMP280;56298;49.246;9.410;2022-10-26T02:29:07;99386.44;;;12.44
69186;BMP280;56298;49.246;9.410;2022-10-26T02:31:35;99388.38;;;12.43
69186;BMP280;56298;49.246;9.410;2022-10-26T02:34:03;99390.72;;;12.41
69186;BMP280;56298;49.246;9.410;2022-10-26T02:36:31;99382.53;;;12.45
69186;BMP280;56298;49.246;9.410;2022-10-26T02:38:59;99384.41;;;12.40
69186;BMP280;56298;49.246;9.410;2022-10-26T02:41:27;99382.16;;;12.46
69186;BMP280;56298;49.246;9.410;2022-10-26T02:44:03;99386.88;;;12.46
69186;BMP280;56298;49.246;9.410;2022-10-26T02:46:30;99384.03;;;12.42
69186;BMP280;56298;49.246;9.410;2022-10-26T02:48:55;99387.97;;;12.41
69186;BMP280;56298;49.246;9.410;2022-10-26T02:54:27;99413.28;;;12.50
69186;BMP280;56298;49.246;9.410;2022-10-26T02:57:08;99415.28;;;12.53
69186;BMP280;56298;49.246;9.410;2022-10-26T02:59:37;99429.16;;;12.37
69186;BMP280;56298;49.246;9.410;2022-10-26T03:02:05;99439.94;;;12.46
69186;BMP280;56298;49.246;9.410;2022-10-26T03:04:32;99442.72;;;12.50
69186;BMP280;56298;49.246;9.410;2022-10-26T03:06:58;99434.16;;;12.55
69186;BMP280;56298;49.246;9.410;2022-10-26T03:09:23;99440.75;;;12.47
69186;BMP280;56298;49.246;9.410;2022-10-26T03:11:49;99460.03;;;12.50
69186;BMP280;56298;49.246;9.410;2022-10-26T03:14:14;99457.63;;;12.49
69186;BMP280;56298;49.246;9.410;2022-10-26T03:16:39;99444.19;;;12.67
69186;BMP280;56298;49.246;9.410;2022-10-26T03:19:05;99454.84;;;12.68
69186;BMP280;56298;49.246;9.410;2022-10-26T03:21:30;99449.28;;;12.65
69186;BMP280;56298;49.246;9.410;2022-10-26T03:23:55;99449.63;;;12.63
69186;BMP280;56298;49.246;9.410;2022-10-26T03:26:21;99437.97;;;12.70
69186;BMP280;56298;49.246;9.410;2022-10-26T03:28:46;99435.63;;;12.72
69186;BMP280;56298;49.246;9.410;2022-10-26T03:31:11;99436.44;;;12.73
69186;BMP280;56298;49.246;9.410;2022-10-26T03:33:37;99442.97;;;12.64
69186;BMP280;56298;49.246;9.410;2022-10-26T03:36:02;99442.41;;;12.55
69186;BMP280;56298;49.246;9.410;2022-10-26T03:38:27;99440.78;;;12.50
69186;BMP280;56298;49.246;9.410;2022-10-26T03:40:52;99438.53;;;12.56
69186;BMP280;56298;49.246;9.410;2022-10-26T03:43:18;99448.19;;;12.46
69186;BMP280;56298;49.246;9.410;2022-10-26T03:45:44;99449.09;;;12.54
69186;BMP280;56298;49.246;9.410;2022-10-26T03:48:09;99449.09;;;12.54
69186;BMP280;56298;49.246;9.410;2022-10-26T03:50:35;99446.78;;;12.56
69186;BMP280;56298;49.246;9.410;2022-10-26T03:53:00;99444.09;;;12.60
69186;BMP280;56298;49.246;9.410;2022-10-26T03:55:25;99453.06;;;12.57
69186;BMP280;56298;49.246;9.410;2022-10-26T03:57:50;99449.28;;;12.65
69186;BMP280;56298;49.246;9.410;2022-10-26T04:00:16;99461.13;;;12.69
69186;BMP280;56298;49.246;9.410;2022-10-26T04:02:43;99450.44;;;12.64
69186;BMP280;56298;49.246;9.410;2022-10-26T04:05:10;99442.63;;;12.66
69186;BMP280;56298;49.246;9.410;2022-10-26T04:07:36;99443.88;;;12.72
69186;BMP280;56298;49.246;9.410;2022-10-26T04:10:01;99441.84;;;12.65
69186;BMP280;56298;49.246;9.410;2022-10-26T04:12:26;99439.66;;;12.75
69186;BMP280;56298;49.246;9.410;2022-10-26T04:14:52;99444.28;;;12.71
69186;BMP280;56298;49.246;9.410;2022-10-26T04:17:17;99440.56;;;12.63
69186;BMP280;56298;49.246;9.410;2022-10-26T04:19:42;99446.59;;;12.68
69186;BMP280;56298;49.246;9.410;2022-10-26T04:22:08;99456.88;;;12.72
69186;BMP280;56298;49.246;9.410;2022-10-26T04:24:33;99448.25;;;12.73
69186;BMP280;56298;49.246;9.410;2022-10-26T04:26:58;99452.94;;;12.73
69186;BMP280;56298;49.246;9.410;2022-10-26T04:29:23;99449.53;;;12.79
69186;BMP280;56298;49.246;9.410;2022-10-26T04:31:49;99449.03;;;12.74
69186;BMP280;56298;49.246;9.410;2022-10-26T04:34:14;99447.81;;;12.71
69186;BMP280;56298;49.246;9.410;2022-10-26T04:36:39;99446.59;;;12.68
69186;BMP280;56298;49.246;9.410;2022-10-26T04:39:04;99450.09;;;12.65
69186;BMP280;56298;49.246;9.410;2022-10-26T04:41:30;99440.31;;;12.68
69186;BMP280;56298;49.246;9.410;2022-10-26T04:43:55;99449.34;;;12.68
69186;BMP280;56298;49.246;9.410;2022-10-26T04:46:20;99445.31;;;12.62
69186;BMP280;56298;49.246;9.410;2022-10-26T04:48:49;99444.09;;;12.60
69186;BMP280;56298;49.246;9.410;2022-10-26T04:51:14;99438.59;;;12.60
69186;BMP280;56298;49.246;9.410;2022-10-26T04:53:39;99432.75;;;12.61
69186;BMP280;56298;49.246;9.410;2022-10-26T04:56:04;99428.09;;;12.65
69186;BMP280;56298;49.246;9.410;2022-10-26T04:58:30;99426.09;;;12.66
69186;BMP280;56298;49.246;9.410;2022-10-26T05:00:55;99429.53;;;12.59
69186;BMP280;56298;49.246;9.410;2022-10-26T05:03:21;99423.53;;;12.53
69186;BMP280;56298;49.246;9.410;2022-10-26T05:05:46;99412.00;;;12.44
69186;BMP280;56298;49.246;9.410;2022-10-26T05:08:14;99404.53;;;12.45
69186;BMP280;56298;49.246;9.410;2022-10-26T05:10:40;99419.00;;;12.42
69186;BMP280;56298;49.246;9.410;2022-10-26T05:13:05;99414.66;;;12.40
69186;BMP280;56298;49.246;9.410;2022-10-26T05:15:30;99414.66;;;12.40
69186;BMP280;56298;49.246;9.410;2022-10-26T05:17:58;99419.09;;;12.45
69186;BMP280;56298;49.246;9.410;2022-10-26T05:20:25;99410.84;;;12.45
69186;BMP280;56298;49.246;9.410;2022-10-26T05:22:54;99410.34;;;12.39
69186;BMP280;56298;49.246;9.410;2022-10-26T05:25:20;99420.25;;;12.44
69186;BMP280;56298;49.246;9.410;2022-10-26T05:27:45;99413.94;;;12.44
69186;BMP280;56298;49.246;9.410;2022-10-26T05:30:11;99417.78;;;12.39
69186;BMP280;56298;49.246;9.410;2022-10-26T05:32:36;99419.00;;;12.42
69186;BMP280;56298;49.246;9.410;2022-10-26T05:35:02;99425.75;;;12.44
69186;BMP280;56298;49.246;9.410;2022-10-26T05:37:29;99428.94;;;12.46
69186;BMP280;56298;49.246;9.410;2022-10-26T05:39:54;99426.19;;;12.46
69186;BMP280;56298;49.246;9.410;2022-10-26T05:42:20;99438.38;;;12.49
69186;BMP280;56298;49.246;9.410;2022-10-26T05:44:45;99425.38;;;12.46
69186;BMP280;56298;49.246;9.410;2022-10-26T05:47:10;99427.03;;;12.50
69186;BMP280;56298;49.246;9.410;2022-10-26T05:49:36;99433.75;;;12.53
69186;BMP280;56298;49.246;9.410;2022-10-26T05:52:01;99433.03;;;12.56
69186;BMP280;56298;49.246;9.410;2022-10-26T05:54:26;99426.34;;;12.57
69186;BMP280;56298;49.246;9.410;2022-10-26T05:56:52;99424.06;;;12.63
69186;BMP280;56298;49.246;9.410;2022-10-26T05:59:19;99427.63;;;12.63
69186;BMP280;56298;49.246;9.410;2022-10-26T06:01:59;99444.44;;;12.58
69186;BMP280;56298;49.246;9.410;2022-10-26T06:04:42;99458.13;;;12.54
69186;BMP280;56298;49.246;9.410;2022-10-26T06:07:14;99467.63;;;12.57
69186;BMP280;56298;49.246;9.410;2022-10-26T06:09:40;99471.25;;;12.61
69186;BMP280;56298;49.246;9.410;2022-10-26T06:12:06;99471.72;;;12.67
69186;BMP280;56298;49.246;9.410;2022-10-26T06:14:36;99485.53;;;12.71
69186;BMP280;56298;49.246;9.410;2022-10-26T06:22:59;99481.53;;;12.88
69186;BMP280;56298;49.246;9.410;2022-10-26T06:25:45;99496.81;;;12.85
69186;BMP280;56298;49.246;9.410;2022-10-26T06:30:47;99518.19;;;12.72
69186;BMP280;56298;49.246;9.410;2022-10-26T06:33:13;99517.63;;;12.82
69186;BMP280;56298;49.246;9.410;2022-10-26T06:38:09;99523.66;;;12.92
69186;BMP280;56298;49.246;9.410;2022-10-26T06:40:38;99522.97;;;12.99
69186;BMP280;56298;49.246;9.410;2022-10-26T06:43:11;99529.25;;;12.99
69186;BMP280;56298;49.246;9.410;2022-10-26T06:45:40;99538.34;;;13.00
69186;BMP280;56298;49.246;9.410;2022-10-26T06:48:15;99535.59;;;13.00
69186;BMP280;56298;49.246;9.410;2022-10-26T06:50:52;99543.16;;;13.06
69186;BMP280;56298;49.246;9.410;2022-10-26T06:53:22;99542.44;;;13.09
69186;BMP280;56298;49.246;9.410;2022-10-26T06:55:50;99544.78;;;13.11
69186;BMP280;56298;49.246;9.410;2022-10-26T06:58:20;99537.78;;;13.14
69186;BMP280;56298;49.246;9.410;2022-10-26T07:00:51;99550.41;;;13.15
69186;BMP280;56298;49.246;9.410;2022-10-26T07:03:17;99549.63;;;13.18
69186;BMP280;56298;49.246;9.410;2022-10-26T07:05:43;99551.34;;;13.26
69186;BMP280;56298;49.246;9.410;2022-10-26T07:08:08;99555.69;;;13.27
69186;BMP280;56298;49.246;9.410;2022-10-26T07:10:34;99563.97;;;13.27
69186;BMP280;56298;49.246;9.410;2022-10-26T07:13:03;99566.78;;;13.31
69186;BMP280;56298;49.246;9.410;2022-10-26T07:15:28;99570.38;;;13.35
69186;BMP280;56298;49.246;9.410;2022-10-26T07:17:53;99565.63;;;13.32
69186;BMP280;56298;49.246;9.410;2022-10-26T07:20:20;99560.88;;;13.32
69186;BMP280;56298;49.246;9.410;2022-10-26T07:22:53;99569.69;;;13.42
69186;BMP280;56298;49.246;9.410;2022-10-26T07:25:19;99572.44;;;13.42
69186;BMP280;56298;49.246;9.410;2022-10-26T07:27:44;99574.16;;;13.50
69186;BMP280;56298;49.246;9.410;2022-10-26T07:30:10;99584.09;;;13.55
69186;BMP280;56298;49.246;9.410;2022-10-26T07:32:35;99578.19;;;13.56
69186;BMP280;56298;49.246;9.410;2022-10-26T07:35:00;99577.25;;;13.45
69186;BMP280;56298;49.246;9.410;2022-10-26T07:37:26;99574.84;;;13.43
69186;BMP280;56298;49.246;9.410;2022-10-26T07:39:51;99567.69;;;13.38
69186;BMP280;56298;49.246;9.410;2022-10-26T07:42:17;99573.94;;;13.35
69186;BMP280;56298;49.246;9.410;2022-10-26T07:44:42;99581.41;;;13.35
69186;BMP280;56298;49.246;9.410;2022-10-26T07:47:07;99575.19;;;13.38
69186;BMP280;56298;49.246;9.410;2022-10-26T07:49:33;99569.06;;;13.52
69186;BMP280;56298;49.246;9.410;2022-10-26T07:51:58;99588.31;;;13.48
69186;BMP280;56298;49.246;9.410;2022-10-26T07:54:23;99571.41;;;13.50
69186;BMP280;56298;49.246;9.410;2022-10-26T07:56:49;99579.50;;;13.66
69186;BMP280;56298;49.246;9.410;2022-10-26T07:59:14;99582.00;;;13.75
69186;BMP280;56298;49.246;9.410;2022-10-26T08:01:41;99593.19;;;13.86
69186;BMP280;56298;49.246;9.410;2022-10-26T08:04:06;99593.66;;;13.91
69186;BMP280;56298;49.246;9.410;2022-10-26T08:06:31;99601.25;;;13.98
69186;BMP280;56298;49.246;9.410;2022-10-26T08:08:56;99610.00;;;14.04
69186;BMP280;56298;49.246;9.410;2022-10-26T08:11:22;99602.00;;;13.95
69186;BMP280;56298;49.246;9.410;2022-10-26T08:13:51;99605.22;;;14.01
69186;BMP280;56298;49.246;9.410;2022-10-26T08:16:16;99611.22;;;14.06
69186;BMP280;56298;49.246;9.410;2022-10-26T08:18:41;99610.50;;;14.13
69186;BMP280;56298;49.246;9.410;2022-10-26T08:21:09;99618.00;;;14.13
69186;BMP280;56298;49.246;9.410;2022-10-26T08:23:36;99621.50;;;14.09
69186;BMP280;56298;49.246;9.410;2022-10-26T08:26:02;99616.50;;;14.19
69186;BMP280;56298;49.246;9.410;2022-10-26T08:28:28;99617.38;;;14.27
69186;BMP280;56298;49.246;9.410;2022-10-26T08:30:54;99608.13;;;14.42
69186;BMP280;56298;49.246;9.410;2022-10-26T08:33:20;99603.91;;;14.52
69186;BMP280;56298;49.246;9.410;2022-10-26T08:35:45;99613.13;;;14.67
69186;BMP280;56298;49.246;9.410;2022-10-26T08:38:11;99613.81;;;14.94
69186;BMP280;56298;49.246;9.410;2022-10-26T08:40:39;99621.13;;;15.17
69186;BMP280;56298;49.246;9.410;2022-10-26T08:46:10;99608.50;;;15.68
69186;BMP280;56298;49.246;9.410;2022-10-26T08:48:38;99609.66;;;15.64
69186;BMP280;56298;49.246;9.410;2022-10-26T08:51:09;99618.03;;;15.82
69186;BMP280;56298;49.246;9.410;2022-10-26T08:53:42;99611.47;;;16.01
69186;BMP280;56298;49.246;9.410;2022-10-26T08:56:17;99620.56;;;16.05
69186;BMP280;56298;49.246;9.410;2022-10-26T08:58:52;99613.97;;;16.32
69186;BMP280;56298;49.246;9.410;2022-10-26T09:01:18;99622.69;;;16.41
69186;BMP280;56298;49.246;9.410;2022-10-26T09:03:44;99621.16;;;16.54
69186;BMP280;56298;49.246;9.410;2022-10-26T09:09:20;99634.25;;;16.61
69186;BMP280;56298;49.246;9.410;2022-10-26T09:11:56;99629.91;;;16.67
69186;BMP280;56298;49.246;9.410;2022-10-26T09:14:38;99640.19;;;16.74
69186;BMP280;56298;49.246;9.410;2022-10-26T09:22:26;99637.34;;;16.52
69186;BMP280;56298;49.246;9.410;2022-10-26T09:25:02;99650.00;;;16.39
69186;BMP280;56298;49.246;9.410;2022-10-26T09:27:34;99653.47;;;16.29
69186;BMP280;56298;49.246;9.410;2022-10-26T09:30:05;99661.75;;;16.18
69186;BMP280;56298;49.246;9.410;2022-10-26T09:32:49;99658.19;;;16.17
69186;BMP280;56298;49.246;9.410;2022-10-26T09:35:20;99661.69;;;16.10
69186;BMP280;56298;49.246;9.410;2022-10-26T09:37:53;99674.41;;;16.22
69186;BMP280;56298;49.246;9.410;2022-10-26T09:40:28;99676.81;;;16.28
69186;BMP280;56298;49.246;9.410;2022-10-26T09:43:09;99676.06;;;16.38
69186;BMP280;56298;49.246;9.410;2022-10-26T09:45:50;99683.28;;;16.61
69186;BMP280;56298;49.246;9.410;2022-10-26T09:48:39;99687.69;;;16.76
69186;BMP280;56298;49.246;9.410;2022-10-26T09:51:06;99693.66;;;16.93
69186;BMP280;56298;49.246;9.410;2022-10-26T09:53:32;99691.31;;;17.17
69186;BMP280;56298;49.246;9.410;2022-10-26T09:56:03;99695.69;;;17.25
69186;BMP280;56298;49.246;9.410;2022-10-26T09:58:34;99692.16;;;17.46
69186;BMP280;56298;49.246;9.410;2022-10-26T10:01:00;99694.94;;;17.57
69186;BMP280;56298;49.246;9.410;2022-10-26T10:03:28;99698.47;;;17.76
69186;BMP280;56298;49.246;9.410;2022-10-26T10:06:14;99700.00;;;17.98
69186;BMP280;56298;49.246;9.410;2022-10-26T10:08:40;99700.59;;;18.61
69186;BMP280;56298;49.246;9.410;2022-10-26T10:11:10;99695.22;;;18.99
69186;BMP280;56298;49.246;9.410;2022-10-26T10:13:45;99708.13;;;19.24
69186;BMP280;56298;49.246;9.410;2022-10-26T10:18:36;99704.53;;;19.72
69186;BMP280;56298;49.246;9.410;2022-10-26T10:21:03;99697.09;;;20.00
69186;BMP280;56298;49.246;9.410;2022-10-26T10:23:47;99693.91;;;19.98
69186;BMP280;56298;49.246;9.410;2022-10-26T10:26:13;99698.72;;;19.94
69186;BMP280;56298;49.246;9.410;2022-10-26T10:28:39;99693.41;;;20.11
69186;BMP280;56298;49.246;9.410;2022-10-26T10:31:21;99693.91;;;20.33
69186;BMP280;56298;49.246;9.410;2022-10-26T10:33:47;99681.97;;;20.63
69186;BMP280;56298;49.246;9.410;2022-10-26T10:36:21;99693.06;;;20.91
69186;BMP280;56298;49.246;9.410;2022-10-26T10:38:49;99694.13;;;21.01
69186;BMP280;56298;49.246;9.410;2022-10-26T10:43:48;99701.19;;;21.33
69186;BMP280;56298;49.246;9.410;2022-10-26T10:46:18;99698.03;;;21.54
69186;BMP280;56298;49.246;9.410;2022-10-26T10:48:52;99707.50;;;21.61
69186;BMP280;56298;49.246;9.410;2022-10-26T10:51:19;99707.13;;;21.79
69186;BMP280;56298;49.246;9.410;2022-10-26T10:53:49;99697.75;;;21.89
69186;BMP280;56298;49.246;9.410;2022-10-26T10:56:37;99691.88;;;22.04
69186;BMP280;56298;49.246;9.410;2022-10-26T10:59:18;99705.00;;;22.07
69186;BMP280;56298;49.246;9.410;2022-10-26T11:01:49;99706.72;;;22.00
69186;BMP280;56298;49.246;9.410;2022-10-26T11:04:35;99706.78;;;22.17
69186;BMP280;56298;49.246;9.410;2022-10-26T11:07:05;99706.53;;;22.28
69186;BMP280;56298;49.246;9.410;2022-10-26T11:09:34;99703.44;;;22.42
69186;BMP280;56298;49.246;9.410;2022-10-26T11:12:06;99705.25;;;22.33
69186;BMP280;56298;49.246;9.410;2022-10-26T11:14:44;99706.34;;;22.39
69186;BMP280;56298;49.246;9.410;2022-10-26T11:17:20;99703.63;;;22.52
69186;BMP280;56298;49.246;9.410;2022-10-26T11:22:26;99704.50;;;22.49
69186;BMP280;56298;49.246;9.410;2022-10-26T11:25:00;99709.75;;;22.47
69186;BMP280;56298;49.246;9.410;2022-10-26T11:27:37;99714.00;;;22.35
69186;BMP280;56298;49.246;9.410;2022-10-26T11:30:08;99713.25;;;22.14
69186;BMP280;56298;49.246;9.410;2022-10-26T11:32:45;99719.16;;;22.36
69186;BMP280;56298;49.246;9.410;2022-10-26T11:35:43;99710.97;;;22.45
69186;BMP280;56298;49.246;9.410;2022-10-26T11:40:58;99722.44;;;22.68
69186;BMP280;56298;49.246;9.410;2022-10-26T11:43:47;99723.56;;;22.54
69186;BMP280;56298;49.246;9.410;2022-10-26T11:46:20;99728.09;;;22.48
69186;BMP280;56298;49.246;9.410;2022-10-26T11:48:54;99725.38;;;22.04
69186;BMP280;56298;49.246;9.410;2022-10-26T11:51:34;99735.50;;;22.38
69186;BMP280;56298;49.246;9.410;2022-10-26T11:54:06;99735.91;;;22.36
69186;BMP280;56298;49.246;9.410;2022-10-26T11:56:37;99739.34;;;22.44
69186;BMP280;56298;49.246;9.410;2022-10-26T11:59:05;99745.13;;;22.53
69186;BMP280;56298;49.246;9.410;2022-10-26T12:01:32;99735.72;;;22.64
69186;BMP280;56298;49.246;9.410;2022-10-26T12:03:59;99739.38;;;22.60
69186;BMP280;56298;49.246;9.410;2022-10-26T12:06:30;99736.78;;;22.33
69186;BMP280;56298;49.246;9.410;2022-10-26T12:09:00;99745.56;;;22.52
69186;BMP280;56298;49.246;9.410;2022-10-26T12:11:45;99740.91;;;22.45
69186;BMP280;56298;49.246;9.410;2022-10-26T12:19:22;99749.50;;;22.54
69186;BMP280;56298;49.246;9.410;2022-10-26T12:21:50;99751.78;;;22.59
69186;BMP280;56298;49.246;9.410;2022-10-26T12:26:58;99750.47;;;22.48
69186;BMP280;56298;49.246;9.410;2022-10-26T12:31:54;99752.69;;;22.16
69186;BMP280;56298;49.246;9.410;2022-10-26T12:37:28;99763.94;;;21.92
69186;BMP280;56298;49.246;9.410;2022-10-26T12:39:53;99777.16;;;21.88
69186;BMP280;56298;49.246;9.410;2022-10-26T12:52:46;99775.66;;;21.83
69186;BMP280;56298;49.246;9.410;2022-10-26T13:01:37;99785.13;;;21.90
69186;BMP280;56298;49.246;9.410;2022-10-26T13:07:18;99781.84;;;21.95
69186;BMP280;56298;49.246;9.410;2022-10-26T13:09:57;99781.19;;;22.07
69186;BMP280;56298;49.246;9.410;2022-10-26T13:12:23;99787.56;;;22.08
69186;BMP280;56298;49.246;9.410;2022-10-26T13:15:00;99781.72;;;22.22
69186;BMP280;56298;49.246;9.410;2022-10-26T13:17:28;99782.88;;;22.25
69186;BMP280;56298;49.246;9.410;2022-10-26T13:20:03;99784.75;;;22.08
69186;BMP280;56298;49.246;9.410;2022-10-26T13:22:30;99789.94;;;22.09
69186;BMP280;56298;49.246;9.410;2022-10-26T13:24:58;99785.81;;;22.38
69186;BMP280;56298;49.246;9.410;2022-10-26T13:32:41;99788.72;;;22.51
69186;BMP280;56298;49.246;9.410;2022-10-26T13:35:12;99791.44;;;22.54
69186;BMP280;56298;49.246;9.410;2022-10-26T13:37:43;99789.03;;;22.73
69186;BMP280;56298;49.246;9.410;2022-10-26T13:40:15;99788.47;;;22.98
69186;BMP280;56298;49.246;9.410;2022-10-26T13:42:47;99794.25;;;23.08
69186;BMP280;56298;49.246;9.410;2022-10-26T13:45:17;99792.25;;;23.08
69186;BMP280;56298;49.246;9.410;2022-10-26T13:47:48;99792.19;;;22.95
69186;BMP280;56298;49.246;9.410;2022-10-26T13:50:27;99795.00;;;22.92
69186;BMP280;56298;49.246;9.410;2022-10-26T13:53:20;99799.56;;;22.85
69186;BMP280;56298;49.246;9.410;2022-10-26T13:55:51;99810.28;;;22.70
69186;BMP280;56298;49.246;9.410;2022-10-26T13:58:26;99804.47;;;22.61
69186;BMP280;56298;49.246;9.410;2022-10-26T14:03:38;99808.25;;;22.34
69186;BMP280;56298;49.246;9.410;2022-10-26T14:06:27;99807.56;;;22.26
69186;BMP280;56298;49.246;9.410;2022-10-26T14:08:54;99813.50;;;22.08
69186;BMP280;56298;49.246;9.410;2022-10-26T14:11:24;99821.84;;;21.88
69186;BMP280;56298;49.246;9.410;2022-10-26T14:13:52;99821.78;;;21.68
69186;BMP280;56298;49.246;9.410;2022-10-26T14:16:18;99827.84;;;21.63
69186;BMP280;56298;49.246;9.410;2022-10-26T14:18:45;99822.28;;;21.63
69186;BMP280;56298;49.246;9.410;2022-10-26T14:21:29;99826.22;;;21.65
69186;BMP280;56298;49.246;9.410;2022-10-26T14:24:00;99830.16;;;21.68
69186;BMP280;56298;49.246;9.410;2022-10-26T14:26:40;99835.41;;;21.66
69186;BMP280;56298;49.246;9.410;2022-10-26T14:29:20;99846.63;;;21.62
69186;BMP280;56298;49.246;9.410;2022-10-26T14:31:46;99843.16;;;21.54
69186;BMP280;56298;49.246;9.410;2022-10-26T14:34:14;99844.78;;;21.52
69186;BMP280;56298;49.246;9.410;2022-10-26T14:36:54;99840.09;;;21.45
69186;BMP280;56298;49.246;9.410;2022-10-26T14:39:31;99836.88;;;21.47
69186;BMP280;56298;49.246;9.410;2022-10-26T14:41:58;99848.03;;;21.47
69186;BMP280;56298;49.246;9.410;2022-10-26T14:44:25;99842.16;;;21.41
69186;BMP280;56298;49.246;9.410;2022-10-26T14:46:51;99844.66;;;21.35
69186;BMP280;56298;49.246;9.410;2022-10-26T14:49:21;99845.47;;;21.32
69186;BMP280;56298;49.246;9.410;2022-10-26T14:51:47;99842.44;;;21.23
69186;BMP280;56298;49.246;9.410;2022-10-26T14:54:21;99845.41;;;21.08
69186;BMP280;56298;49.246;9.410;2022-10-26T14:56:47;99852.13;;;21.15
69186;BMP280;56298;49.246;9.410;2022-10-26T14:59:25;99852.69;;;21.02
69186;BMP280;56298;49.246;9.410;2022-10-26T15:01:56;99855.47;;;21.02
69186;BMP280;56298;49.246;9.410;2022-10-26T15:06:51;99860.44;;;20.87
69186;BMP280;56298;49.246;9.410;2022-10-26T15:09:29;99858.22;;;20.75
69186;BMP280;56298;49.246;9.410;2022-10-26T15:11:55;99863.06;;;20.67
69186;BMP280;56298;49.246;9.410;2022-10-26T15:14:20;99867.47;;;20.68
69186;BMP280;56298;49.246;9.410;2022-10-26T15:16:52;99869.84;;;20.66
69186;BMP280;56298;49.246;9.410;2022-10-26T15:19:19;99870.66;;;20.63
69186;BMP280;56298;49.246;9.410;2022-10-26T15:21:48;99873.53;;;20.56
69186;BMP280;56298;49.246;9.410;2022-10-26T15:24:26;99881.94;;;20.52
69186;BMP280;56298;49.246;9.410;2022-10-26T15:26:53;99883.16;;;20.47
69186;BMP280;56298;49.246;9.410;2022-10-26T15:29:44;99883.28;;;20.40
69186;BMP280;56298;49.246;9.410;2022-10-26T15:35:12;99880.63;;;20.22
69186;BMP280;56298;49.246;9.410;2022-10-26T15:37:38;99890.25;;;20.14
69186;BMP280;56298;49.246;9.410;2022-10-26T15:40:03;99890.69;;;20.09
69186;BMP280;56298;49.246;9.410;2022-10-26T15:42:29;99889.22;;;20.00
69186;BMP280;56298;49.246;9.410;2022-10-26T15:44:54;99891.63;;;19.95
69186;BMP280;56298;49.246;9.410;2022-10-26T15:47:20;99893.69;;;19.83
69186;BMP280;56298;49.246;9.410;2022-10-26T15:49:46;99894.56;;;19.73
69186;BMP280;56298;49.246;9.410;2022-10-26T15:52:11;99903.38;;;19.64
69186;BMP280;56298;49.246;9.410;2022-10-26T15:54:37;99903.38;;;19.57
69186;BMP280;56298;49.246;9.410;2022-10-26T15:57:02;99905.03;;;19.51
69186;BMP280;56298;49.246;9.410;2022-10-26T15:59:27;99909.06;;;19.42